Time;durP1;ratioP1;P1;durP2;ratioP2;P2;SDS_P1;SDS_P2;PMS_P1;PMS_P2;Temp;Humidity;BMP_temperature;BMP_pressure;BME280_temperature;BME280_humidity;BME280_pressure;Samples;Min_cycle;Max_cycle;Signal;HPM_P1;HPM_P2
2022/08/11 00:00:01;;;;;;;0.1;0.1;;;;;;;22.8;73.0;101960;;;;
2022/08/11 00:01:04;;;;;;;0.1;0.1;;;;;;;22.7;75.3;101960;;;;
2022/08/11 00:02:01;;;;;;;0.1;0.1;;;;;;;22.7;75.3;101960;;;;
2022/08/11 00:03:03;;;;;;;0.1;0.1;;;;;;;22.7;73.8;101960;;;;
2022/08/11 00:04:01;;;;;;;0.1;0.1;;;;;;;22.7;73.8;101960;;;;
2022/08/11 00:05:02;;;;;;;0.1;0.1;;;;;;;22.7;73.5;101960;;;;
2022/08/11 00:06:00;;;;;;;0.1;0.1;;;;;;;22.7;73.5;101960;;;;
2022/08/11 00:07:02;;;;;;;0.1;0.1;;;;;;;22.6;74.3;101960;;;;
2022/08/11 00:08:00;;;;;;;0.1;0.1;;;;;;;22.6;74.3;101960;;;;
2022/08/11 00:09:02;;;;;;;0.1;0.1;;;;;;;22.6;75.0;101960;;;;
2022/08/11 00:10:00;;;;;;;0.1;0.1;;;;;;;22.6;75.0;101960;;;;
2022/08/11 00:11:01;;;;;;;0.1;0.1;;;;;;;22.4;76.8;101960;;;;
2022/08/11 00:12:01;;;;;;;0.1;0.1;;;;;;;22.4;76.8;101960;;;;
2022/08/11 00:13:02;;;;;;;0.1;0.1;;;;;;;22.4;75.6;101960;;;;
2022/08/11 00:14:00;;;;;;;0.1;0.1;;;;;;;22.4;75.6;101960;;;;
2022/08/11 00:15:00;;;;;;;0.2;0.2;;;;;;;22.6;74.5;101960;;;;
2022/08/11 00:16:00;;;;;;;0.2;0.2;;;;;;;22.6;74.5;101960;;;;
2022/08/11 00:17:00;;;;;;;0.2;0.2;;;;;;;22.5;75.5;101960;;;;
2022/08/11 00:18:01;;;;;;;0.2;0.2;;;;;;;22.5;75.5;101960;;;;
2022/08/11 00:19:01;;;;;;;0.2;0.2;;;;;;;22.4;75.4;101960;;;;
2022/08/11 00:20:12;;;;;;;0.2;0.2;;;;;;;22.4;75.4;101960;;;;
2022/08/11 00:21:00;;;;;;;0.2;0.2;;;;;;;22.4;76.9;101960;;;;
2022/08/11 00:22:06;;;;;;;0.2;0.2;;;;;;;22.4;76.9;101960;;;;
2022/08/11 00:23:04;;;;;;;0.2;0.2;;;;;;;22.4;76.0;101960;;;;
2022/08/11 00:24:00;;;;;;;0.2;0.2;;;;;;;22.4;76.0;101960;;;;
2022/08/11 00:25:08;;;;;;;0.2;0.2;;;;;;;22.4;76.0;101960;;;;
2022/08/11 00:26:00;;;;;;;0.2;0.2;;;;;;;22.4;76.0;101960;;;;
2022/08/11 00:27:00;;;;;;;0.2;0.2;;;;;;;22.1;78.4;101960;;;;
2022/08/11 00:28:00;;;;;;;0.2;0.2;;;;;;;22.1;78.4;101960;;;;
2022/08/11 00:29:08;;;;;;;0.2;0.2;;;;;;;22.3;76.6;101960;;;;
2022/08/11 00:30:00;;;;;;;0.2;0.2;;;;;;;22.3;76.6;101960;;;;
2022/08/11 00:31:10;;;;;;;0.2;0.2;;;;;;;22.1;79.1;101960;;;;
2022/08/11 00:32:02;;;;;;;0.2;0.2;;;;;;;22.1;79.1;101960;;;;
2022/08/11 00:33:00;;;;;;;0.2;0.2;;;;;;;22.0;79.6;101960;;;;
2022/08/11 00:34:01;;;;;;;0.2;0.2;;;;;;;22.0;79.6;101960;;;;
2022/08/11 00:35:11;;;;;;;0.2;0.2;;;;;;;22.1;78.1;101960;;;;
2022/08/11 00:36:02;;;;;;;0.2;0.2;;;;;;;22.1;78.1;101960;;;;
2022/08/11 00:37:00;;;;;;;0.2;0.2;;;;;;;22.0;80.4;101960;;;;
2022/08/11 00:38:00;;;;;;;0.2;0.2;;;;;;;22.0;80.4;101960;;;;
2022/08/11 00:39:03;;;;;;;0.2;0.2;;;;;;;21.8;81.3;101960;;;;
2022/08/11 00:40:02;;;;;;;0.2;0.2;;;;;;;21.8;81.3;101960;;;;
2022/08/11 00:41:05;;;;;;;0.2;0.2;;;;;;;21.9;79.2;101960;;;;
2022/08/11 00:42:09;;;;;;;0.2;0.2;;;;;;;21.9;79.2;101960;;;;
2022/08/11 00:43:20;;;;;;;0.2;0.2;;;;;;;22.0;79.9;101960;;;;
2022/08/11 00:44:09;;;;;;;0.2;0.2;;;;;;;22.0;79.9;101960;;;;
2022/08/11 00:45:08;;;;;;;0.2;0.2;;;;;;;21.9;80.2;101960;;;;
2022/08/11 00:46:00;;;;;;;0.2;0.2;;;;;;;21.9;80.2;101960;;;;
2022/08/11 00:47:01;;;;;;;0.2;0.2;;;;;;;21.8;81.1;101960;;;;
2022/08/11 00:48:00;;;;;;;0.2;0.2;;;;;;;21.8;81.1;101960;;;;
2022/08/11 00:49:11;;;;;;;0.2;0.2;;;;;;;21.9;80.3;101950;;;;
2022/08/11 00:50:00;;;;;;;0.2;0.2;;;;;;;21.9;80.3;101950;;;;
2022/08/11 00:51:10;;;;;;;0.2;0.2;;;;;;;21.9;80.2;101960;;;;
2022/08/11 00:52:10;;;;;;;0.2;0.2;;;;;;;21.9;80.2;101960;;;;
2022/08/11 00:53:10;;;;;;;0.2;0.2;;;;;;;21.8;81.6;101950;;;;
2022/08/11 00:54:07;;;;;;;0.2;0.2;;;;;;;21.8;81.6;101950;;;;
2022/08/11 00:55:10;;;;;;;0.8;0.8;;;;;;;21.8;80.7;101950;;;;
2022/08/11 00:56:10;;;;;;;0.8;0.8;;;;;;;21.8;80.7;101950;;;;
2022/08/11 00:57:19;;;;;;;0.8;0.8;;;;;;;21.6;82.3;101960;;;;
2022/08/11 00:58:10;;;;;;;0.8;0.8;;;;;;;21.6;82.3;101960;;;;
2022/08/11 00:59:20;;;;;;;0.8;0.8;;;;;;;21.6;82.7;101950;;;;
2022/08/11 01:00:10;;;;;;;0.8;0.8;;;;;;;21.6;82.7;101950;;;;
2022/08/11 01:01:01;;;;;;;0.8;0.8;;;;;;;21.7;81.6;101950;;;;
2022/08/11 01:02:10;;;;;;;0.8;0.8;;;;;;;21.7;81.6;101950;;;;
2022/08/11 01:03:11;;;;;;;0.8;0.8;;;;;;;21.6;82.7;101950;;;;
2022/08/11 01:04:10;;;;;;;0.8;0.8;;;;;;;21.6;82.7;101950;;;;
2022/08/11 01:05:10;;;;;;;0.8;0.8;;;;;;;21.6;83.1;101950;;;;
2022/08/11 01:06:05;;;;;;;0.8;0.8;;;;;;;21.6;83.1;101950;;;;
2022/08/11 01:07:10;;;;;;;0.8;0.8;;;;;;;21.5;84.3;101960;;;;
2022/08/11 01:08:04;;;;;;;0.8;0.8;;;;;;;21.5;84.3;101960;;;;
2022/08/11 01:09:20;;;;;;;0.8;0.8;;;;;;;21.4;85.5;101960;;;;
2022/08/11 01:10:10;;;;;;;0.8;0.8;;;;;;;21.4;85.5;101960;;;;
2022/08/11 01:11:00;;;;;;;0.8;0.8;;;;;;;21.5;83.8;101960;;;;
2022/08/11 01:12:10;;;;;;;0.8;0.8;;;;;;;21.5;83.8;101960;;;;
2022/08/11 01:13:10;;;;;;;0.8;0.8;;;;;;;21.5;84.3;101950;;;;
2022/08/11 01:14:07;;;;;;;0.8;0.8;;;;;;;21.5;84.3;101950;;;;
2022/08/11 01:15:10;;;;;;;0.2;0.2;;;;;;;21.4;85.7;101950;;;;
2022/08/11 01:16:07;;;;;;;0.2;0.2;;;;;;;21.4;85.7;101950;;;;
2022/08/11 01:17:14;;;;;;;0.2;0.2;;;;;;;21.3;86.6;101950;;;;
2022/08/11 01:18:10;;;;;;;0.2;0.2;;;;;;;21.3;86.6;101950;;;;
2022/08/11 01:19:03;;;;;;;0.2;0.2;;;;;;;21.4;85.1;101960;;;;
2022/08/11 01:20:20;;;;;;;0.2;0.2;;;;;;;21.4;85.1;101960;;;;
2022/08/11 01:21:10;;;;;;;0.2;0.2;;;;;;;21.4;85.5;101960;;;;
2022/08/11 01:22:10;;;;;;;0.2;0.2;;;;;;;21.4;85.5;101960;;;;
2022/08/11 01:23:01;;;;;;;0.2;0.2;;;;;;;21.3;85.7;101960;;;;
2022/08/11 01:24:03;;;;;;;0.2;0.2;;;;;;;21.3;85.7;101960;;;;
2022/08/11 01:25:00;;;;;;;0.2;0.2;;;;;;;21.2;86.3;101960;;;;
2022/08/11 01:26:10;;;;;;;0.2;0.2;;;;;;;21.2;86.3;101960;;;;
2022/08/11 01:27:01;;;;;;;0.2;0.2;;;;;;;21.3;85.5;101960;;;;
2022/08/11 01:28:01;;;;;;;0.2;0.2;;;;;;;21.3;85.5;101960;;;;
2022/08/11 01:29:07;;;;;;;0.2;0.2;;;;;;;21.3;85.7;101960;;;;
2022/08/11 01:30:10;;;;;;;0.2;0.2;;;;;;;21.3;85.7;101960;;;;
2022/08/11 01:31:10;;;;;;;0.2;0.2;;;;;;;21.3;85.1;101960;;;;
2022/08/11 01:32:01;;;;;;;0.2;0.2;;;;;;;21.3;85.1;101960;;;;
2022/08/11 01:33:10;;;;;;;0.2;0.2;;;;;;;21.3;85.1;101960;;;;
2022/08/11 01:34:10;;;;;;;0.2;0.2;;;;;;;21.3;85.1;101960;;;;
2022/08/11 01:35:03;;;;;;;0.1;0.1;;;;;;;21.3;85.5;101960;;;;
2022/08/11 01:36:09;;;;;;;0.1;0.1;;;;;;;21.3;85.5;101960;;;;
2022/08/11 01:37:05;;;;;;;0.1;0.1;;;;;;;21.2;86.1;101960;;;;
2022/08/11 01:38:10;;;;;;;0.1;0.1;;;;;;;21.2;86.1;101960;;;;
2022/08/11 01:39:10;;;;;;;0.1;0.1;;;;;;;21.2;85.8;101960;;;;
2022/08/11 01:40:07;;;;;;;0.1;0.1;;;;;;;21.2;85.8;101960;;;;
2022/08/11 01:41:00;;;;;;;0.1;0.1;;;;;;;21.1;86.9;101960;;;;
2022/08/11 01:45:07;;;;;;;0.1;0.1;;;;;;;21.0;86.6;101960;;;;
2022/08/11 01:46:05;;;;;;;0.1;0.1;;;;;;;21.0;86.6;101960;;;;
2022/08/11 01:47:49;;;;;;;0.1;0.1;;;;;;;21.0;87.7;101960;;;;
2022/08/11 01:48:10;;;;;;;0.1;0.1;;;;;;;21.0;87.7;101960;;;;
2022/08/11 01:49:16;;;;;;;0.1;0.1;;;;;;;20.8;88.6;101960;;;;
2022/08/11 01:50:10;;;;;;;0.1;0.1;;;;;;;20.8;88.6;101960;;;;
2022/08/11 01:51:17;;;;;;;0.1;0.1;;;;;;;20.7;88.9;101960;;;;
2022/08/11 01:52:01;;;;;;;0.1;0.1;;;;;;;20.7;88.9;101960;;;;
2022/08/11 01:53:08;;;;;;;0.1;0.1;;;;;;;20.8;90.0;101950;;;;
2022/08/11 01:54:10;;;;;;;0.1;0.1;;;;;;;20.8;90.0;101950;;;;
2022/08/11 01:55:10;;;;;;;0.2;0.2;;;;;;;20.9;87.4;101950;;;;
2022/08/11 01:56:01;;;;;;;0.2;0.2;;;;;;;20.9;87.4;101950;;;;
2022/08/11 01:57:12;;;;;;;0.2;0.2;;;;;;;20.9;88.9;101960;;;;
2022/08/11 01:58:01;;;;;;;0.2;0.2;;;;;;;20.9;88.9;101960;;;;
2022/08/11 01:59:09;;;;;;;0.2;0.2;;;;;;;20.9;86.5;101960;;;;
2022/08/11 02:00:10;;;;;;;0.2;0.2;;;;;;;20.9;86.5;101960;;;;
2022/08/11 02:01:10;;;;;;;0.2;0.2;;;;;;;20.9;88.7;101960;;;;
2022/08/11 02:02:00;;;;;;;0.2;0.2;;;;;;;20.9;88.7;101960;;;;
2022/08/11 02:03:06;;;;;;;0.2;0.2;;;;;;;20.8;88.9;101960;;;;
2022/08/11 02:04:08;;;;;;;0.2;0.2;;;;;;;20.8;88.9;101960;;;;
2022/08/11 02:05:05;;;;;;;0.2;0.2;;;;;;;20.7;89.4;101960;;;;
2022/08/11 02:07:08;;;;;;;0.2;0.2;;;;;;;20.7;90.2;101960;;;;
2022/08/11 02:08:03;;;;;;;0.2;0.2;;;;;;;20.7;90.2;101960;;;;
2022/08/11 02:09:08;;;;;;;0.2;0.2;;;;;;;20.7;89.3;101950;;;;
2022/08/11 02:11:29;;;;;;;0.2;0.2;;;;;;;20.7;89.3;101950;;;;
2022/08/11 02:12:09;;;;;;;0.2;0.2;;;;;;;20.6;91.4;101950;;;;
2022/08/11 02:13:08;;;;;;;0.2;0.2;;;;;;;20.5;91.5;101950;;;;
2022/08/11 02:14:10;;;;;;;0.2;0.2;;;;;;;20.5;91.5;101950;;;;
2022/08/11 02:15:06;;;;;;;0.1;0.1;;;;;;;20.6;90.7;101950;;;;
2022/08/11 02:16:07;;;;;;;0.1;0.1;;;;;;;20.6;90.7;101950;;;;
2022/08/11 02:17:00;;;;;;;0.1;0.1;;;;;;;20.7;87.8;101950;;;;
2022/08/11 02:18:11;;;;;;;0.1;0.1;;;;;;;20.7;87.8;101950;;;;
2022/08/11 02:24:08;;;;;;;0.1;0.1;;;;;;;20.5;90.9;101960;;;;
2022/08/11 02:25:03;;;;;;;0.1;0.1;;;;;;;20.6;89.6;101960;;;;
2022/08/11 02:26:04;;;;;;;0.1;0.1;;;;;;;20.6;89.6;101960;;;;
2022/08/11 02:27:05;;;;;;;0.1;0.1;;;;;;;20.4;92.4;101950;;;;
2022/08/11 02:28:03;;;;;;;0.1;0.1;;;;;;;20.4;92.4;101950;;;;
2022/08/11 02:29:10;;;;;;;0.1;0.1;;;;;;;20.4;92.4;101960;;;;
2022/08/11 02:30:06;;;;;;;0.1;0.1;;;;;;;20.4;92.4;101960;;;;
2022/08/11 02:34:11;;;;;;;0.1;0.1;;;;;;;20.4;93.0;101950;;;;
2022/08/11 02:35:01;;;;;;;0.1;0.1;;;;;;;20.5;90.9;101950;;;;
2022/08/11 02:36:05;;;;;;;0.1;0.1;;;;;;;20.5;90.9;101950;;;;
2022/08/11 02:37:14;;;;;;;0.1;0.1;;;;;;;20.5;88.8;101950;;;;
2022/08/11 02:38:10;;;;;;;0.1;0.1;;;;;;;20.5;88.8;101950;;;;
2022/08/11 02:39:05;;;;;;;0.1;0.1;;;;;;;20.4;90.0;101950;;;;
2022/08/11 02:40:10;;;;;;;0.1;0.1;;;;;;;20.4;90.0;101950;;;;
2022/08/11 02:42:21;;;;;;;0.1;0.1;;;;;;;20.5;90.6;101950;;;;
2022/08/11 02:42:23;;;;;;;0.1;0.1;;;;;;;20.5;90.6;101950;;;;
2022/08/11 02:43:08;;;;;;;0.1;0.1;;;;;;;20.5;89.4;101950;;;;
2022/08/11 02:44:00;;;;;;;0.1;0.1;;;;;;;20.5;89.4;101950;;;;
2022/08/11 02:45:01;;;;;;;0.1;0.1;;;;;;;20.3;92.7;101950;;;;
2022/08/11 02:46:05;;;;;;;0.1;0.1;;;;;;;20.3;92.7;101950;;;;
2022/08/11 02:47:01;;;;;;;0.1;0.1;;;;;;;20.3;91.2;101950;;;;
2022/08/11 02:50:10;;;;;;;0.1;0.1;;;;;;;20.4;90.3;101950;;;;
2022/08/11 02:51:10;;;;;;;0.1;0.1;;;;;;;20.4;90.2;101950;;;;
2022/08/11 02:52:10;;;;;;;0.1;0.1;;;;;;;20.4;90.2;101950;;;;
2022/08/11 02:53:07;;;;;;;0.1;0.1;;;;;;;20.4;89.5;101940;;;;
2022/08/11 02:54:08;;;;;;;0.1;0.1;;;;;;;20.4;89.5;101940;;;;
2022/08/11 02:55:13;;;;;;;0.6;0.6;;;;;;;20.5;89.5;101940;;;;
2022/08/11 02:56:10;;;;;;;0.6;0.6;;;;;;;20.5;89.5;101940;;;;
2022/08/11 02:57:11;;;;;;;0.6;0.6;;;;;;;20.3;92.3;101940;;;;
2022/08/11 02:58:09;;;;;;;0.6;0.6;;;;;;;20.3;92.3;101940;;;;
2022/08/11 03:00:09;;;;;;;0.6;0.6;;;;;;;20.4;89.9;101950;;;;
2022/08/11 03:01:10;;;;;;;0.6;0.6;;;;;;;20.4;89.3;101950;;;;
2022/08/11 03:02:10;;;;;;;0.6;0.6;;;;;;;20.4;89.3;101950;;;;
2022/08/11 03:03:10;;;;;;;0.6;0.6;;;;;;;20.3;91.0;101950;;;;
2022/08/11 03:04:06;;;;;;;0.6;0.6;;;;;;;20.3;91.0;101950;;;;
2022/08/11 03:05:12;;;;;;;0.6;0.6;;;;;;;20.2;91.3;101950;;;;
2022/08/11 03:06:07;;;;;;;0.6;0.6;;;;;;;20.2;91.3;101950;;;;
2022/08/11 03:07:15;;;;;;;0.6;0.6;;;;;;;20.0;93.1;101950;;;;
2022/08/11 03:08:10;;;;;;;0.6;0.6;;;;;;;20.0;93.1;101950;;;;
2022/08/11 03:09:05;;;;;;;0.6;0.6;;;;;;;20.0;93.9;101950;;;;
2022/08/11 03:10:09;;;;;;;0.6;0.6;;;;;;;20.0;93.9;101950;;;;
2022/08/11 03:17:03;;;;;;;0.3;0.3;;;;;;;19.9;96.6;101950;;;;
2022/08/11 03:18:10;;;;;;;0.3;0.3;;;;;;;19.9;96.6;101950;;;;
2022/08/11 03:19:00;;;;;;;0.3;0.3;;;;;;;19.9;94.0;101950;;;;
2022/08/11 03:20:10;;;;;;;0.3;0.3;;;;;;;19.9;94.0;101950;;;;
2022/08/11 03:21:01;;;;;;;0.3;0.3;;;;;;;20.0;94.1;101950;;;;
2022/08/11 03:22:07;;;;;;;0.3;0.3;;;;;;;20.0;94.1;101950;;;;
2022/08/11 03:23:20;;;;;;;0.3;0.3;;;;;;;20.0;94.2;101950;;;;
2022/08/11 03:24:04;;;;;;;0.3;0.3;;;;;;;20.0;94.2;101950;;;;
2022/08/11 03:25:04;;;;;;;0.3;0.3;;;;;;;20.0;93.8;101950;;;;
2022/08/11 03:26:05;;;;;;;0.3;0.3;;;;;;;20.0;93.8;101950;;;;
2022/08/11 03:27:00;;;;;;;0.3;0.3;;;;;;;19.9;95.7;101950;;;;
2022/08/11 03:28:09;;;;;;;0.3;0.3;;;;;;;19.9;95.7;101950;;;;
2022/08/11 03:29:10;;;;;;;0.3;0.3;;;;;;;20.0;94.3;101950;;;;
2022/08/11 03:30:03;;;;;;;0.3;0.3;;;;;;;20.0;94.3;101950;;;;
2022/08/11 03:31:10;;;;;;;0.3;0.3;;;;;;;19.8;96.1;101950;;;;
2022/08/11 03:32:05;;;;;;;0.3;0.3;;;;;;;19.8;96.1;101950;;;;
2022/08/11 03:34:06;;;;;;;0.3;0.3;;;;;;;19.8;96.7;101950;;;;
2022/08/11 03:35:02;;;;;;;0.2;0.2;;;;;;;19.9;96.2;101950;;;;
2022/08/11 03:36:10;;;;;;;0.2;0.2;;;;;;;19.9;96.2;101950;;;;
2022/08/11 03:37:49;;;;;;;0.2;0.2;;;;;;;19.9;96.3;101950;;;;
2022/08/11 03:38:02;;;;;;;0.2;0.2;;;;;;;19.9;96.3;101950;;;;
2022/08/11 03:39:06;;;;;;;0.2;0.2;;;;;;;19.8;96.8;101950;;;;
2022/08/11 03:40:10;;;;;;;0.2;0.2;;;;;;;19.8;96.8;101950;;;;
2022/08/11 03:42:05;;;;;;;0.2;0.2;;;;;;;19.8;95.3;101950;;;;
2022/08/11 03:43:06;;;;;;;0.2;0.2;;;;;;;19.9;94.2;101940;;;;
2022/08/11 03:44:09;;;;;;;0.2;0.2;;;;;;;19.9;94.2;101940;;;;
2022/08/11 03:45:10;;;;;;;0.2;0.2;;;;;;;19.8;94.3;101940;;;;
2022/08/11 03:46:01;;;;;;;0.2;0.2;;;;;;;19.8;94.3;101940;;;;
2022/08/11 03:47:07;;;;;;;0.2;0.2;;;;;;;19.8;94.0;101940;;;;
2022/08/11 03:48:10;;;;;;;0.2;0.2;;;;;;;19.8;94.0;101940;;;;
2022/08/11 03:49:10;;;;;;;0.2;0.2;;;;;;;19.8;94.2;101940;;;;
2022/08/11 03:50:01;;;;;;;0.2;0.2;;;;;;;19.8;94.2;101940;;;;
2022/08/11 03:51:05;;;;;;;0.2;0.2;;;;;;;19.7;95.7;101940;;;;
2022/08/11 03:52:07;;;;;;;0.2;0.2;;;;;;;19.7;95.7;101940;;;;
2022/08/11 03:53:01;;;;;;;0.2;0.2;;;;;;;19.8;94.4;101940;;;;
2022/08/11 03:54:03;;;;;;;0.2;0.2;;;;;;;19.8;94.4;101940;;;;
2022/08/11 03:55:10;;;;;;;0.2;0.2;;;;;;;19.8;96.0;101940;;;;
2022/08/11 03:56:11;;;;;;;0.2;0.2;;;;;;;19.8;96.0;101940;;;;
2022/08/11 03:57:10;;;;;;;0.2;0.2;;;;;;;19.7;96.4;101950;;;;
2022/08/11 03:58:01;;;;;;;0.2;0.2;;;;;;;19.7;96.4;101950;;;;
2022/08/11 03:59:00;;;;;;;0.2;0.2;;;;;;;19.7;95.7;101950;;;;
2022/08/11 04:00:10;;;;;;;0.2;0.2;;;;;;;19.7;95.7;101950;;;;
2022/08/11 04:01:10;;;;;;;0.2;0.2;;;;;;;19.6;97.4;101950;;;;
2022/08/11 04:02:07;;;;;;;0.2;0.2;;;;;;;19.6;97.4;101950;;;;
2022/08/11 04:03:10;;;;;;;0.2;0.2;;;;;;;19.5;98.0;101940;;;;
2022/08/11 04:04:10;;;;;;;0.2;0.2;;;;;;;19.5;98.0;101940;;;;
2022/08/11 04:05:10;;;;;;;0.2;0.2;;;;;;;19.5;99.7;101940;;;;
2022/08/11 04:06:02;;;;;;;0.2;0.2;;;;;;;19.5;99.7;101940;;;;
2022/08/11 04:07:17;;;;;;;0.2;0.2;;;;;;;19.5;98.2;101940;;;;
2022/08/11 04:08:03;;;;;;;0.2;0.2;;;;;;;19.5;98.2;101940;;;;
2022/08/11 04:09:00;;;;;;;0.2;0.2;;;;;;;19.5;98.4;101940;;;;
2022/08/11 04:10:09;;;;;;;0.2;0.2;;;;;;;19.5;98.4;101940;;;;
2022/08/11 04:11:10;;;;;;;0.2;0.2;;;;;;;19.6;95.7;101940;;;;
2022/08/11 04:12:03;;;;;;;0.2;0.2;;;;;;;19.6;95.7;101940;;;;
2022/08/11 04:13:10;;;;;;;0.2;0.2;;;;;;;19.6;95.2;101940;;;;
2022/08/11 04:15:59;;;;;;;0.2;0.2;;;;;;;19.6;95.2;101940;;;;
2022/08/11 04:16:12;;;;;;;0.3;0.3;;;;;;;19.5;100.0;101940;;;;
2022/08/11 04:17:10;;;;;;;0.3;0.3;;;;;;;19.3;100.0;101940;;;;
2022/08/11 04:18:10;;;;;;;0.3;0.3;;;;;;;19.3;100.0;101940;;;;
2022/08/11 04:19:10;;;;;;;0.3;0.3;;;;;;;19.2;100.0;101940;;;;
2022/08/11 04:20:01;;;;;;;0.3;0.3;;;;;;;19.2;100.0;101940;;;;
2022/08/11 04:21:10;;;;;;;0.3;0.3;;;;;;;19.2;100.0;101940;;;;
2022/08/11 04:22:10;;;;;;;0.3;0.3;;;;;;;19.2;100.0;101940;;;;
2022/08/11 04:23:10;;;;;;;0.3;0.3;;;;;;;19.3;99.8;101940;;;;
2022/08/11 04:24:17;;;;;;;0.3;0.3;;;;;;;19.3;99.8;101940;;;;
2022/08/11 04:25:07;;;;;;;0.3;0.3;;;;;;;19.4;100.0;101940;;;;
2022/08/11 04:26:13;;;;;;;0.3;0.3;;;;;;;19.4;100.0;101940;;;;
2022/08/11 04:27:14;;;;;;;0.3;0.3;;;;;;;19.2;100.0;101940;;;;
2022/08/11 04:28:20;;;;;;;0.3;0.3;;;;;;;19.2;100.0;101940;;;;
2022/08/11 04:29:10;;;;;;;0.3;0.3;;;;;;;19.0;100.0;101940;;;;
2022/08/11 04:30:05;;;;;;;0.3;0.3;;;;;;;19.0;100.0;101940;;;;
2022/08/11 04:31:10;;;;;;;0.3;0.3;;;;;;;19.1;100.0;101940;;;;
2022/08/11 04:32:10;;;;;;;0.3;0.3;;;;;;;19.1;100.0;101940;;;;
2022/08/11 04:33:08;;;;;;;0.3;0.3;;;;;;;19.1;100.0;101940;;;;
2022/08/11 04:34:08;;;;;;;0.3;0.3;;;;;;;19.1;100.0;101940;;;;
2022/08/11 04:35:10;;;;;;;0.3;0.3;;;;;;;19.2;100.0;101940;;;;
2022/08/11 04:36:10;;;;;;;0.3;0.3;;;;;;;19.2;100.0;101940;;;;
2022/08/11 04:38:10;;;;;;;0.3;0.3;;;;;;;19.2;100.0;101940;;;;
2022/08/11 04:39:10;;;;;;;0.3;0.3;;;;;;;19.1;100.0;101940;;;;
2022/08/11 04:40:10;;;;;;;0.3;0.3;;;;;;;19.1;100.0;101940;;;;
2022/08/11 04:41:13;;;;;;;0.3;0.3;;;;;;;19.1;100.0;101940;;;;
2022/08/11 04:44:06;;;;;;;0.3;0.3;;;;;;;19.1;100.0;101940;;;;
2022/08/11 04:45:10;;;;;;;0.3;0.3;;;;;;;19.1;100.0;101940;;;;
2022/08/11 04:46:10;;;;;;;0.3;0.3;;;;;;;19.1;100.0;101940;;;;
2022/08/11 04:47:10;;;;;;;0.3;0.3;;;;;;;19.0;100.0;101940;;;;
2022/08/11 05:02:00;;;;;;;0.2;0.2;;;;;;;19.0;100.0;101940;;;;
2022/08/11 05:03:07;;;;;;;0.2;0.2;;;;;;;19.0;100.0;101940;;;;
2022/08/11 05:05:29;;;;;;;0.2;0.2;;;;;;;19.0;100.0;101940;;;;
2022/08/11 05:06:09;;;;;;;0.2;0.2;;;;;;;19.0;100.0;101940;;;;
2022/08/11 05:07:10;;;;;;;0.2;0.2;;;;;;;19.0;100.0;101950;;;;
2022/08/11 05:08:02;;;;;;;0.2;0.2;;;;;;;19.0;100.0;101950;;;;
2022/08/11 05:09:10;;;;;;;0.2;0.2;;;;;;;19.0;100.0;101940;;;;
2022/08/11 05:10:10;;;;;;;0.2;0.2;;;;;;;19.0;100.0;101940;;;;
2022/08/11 05:11:10;;;;;;;0.2;0.2;;;;;;;19.1;100.0;101940;;;;
2022/08/11 05:12:05;;;;;;;0.2;0.2;;;;;;;19.1;100.0;101940;;;;
2022/08/11 05:27:09;;;;;;;0.2;0.2;;;;;;;19.1;100.0;101940;;;;
2022/08/11 05:35:02;;;;;;;0.3;0.3;;;;;;;19.4;100.0;101950;;;;
2022/08/11 05:36:07;;;;;;;0.3;0.3;;;;;;;19.4;100.0;101950;;;;
2022/08/11 05:37:16;;;;;;;0.3;0.3;;;;;;;19.4;100.0;101950;;;;
2022/08/11 05:57:01;;;;;;;0.3;0.3;;;;;;;19.8;100.0;101960;;;;
2022/08/11 05:58:02;;;;;;;0.3;0.3;;;;;;;19.8;100.0;101960;;;;
2022/08/11 05:59:01;;;;;;;0.3;0.3;;;;;;;19.9;100.0;101960;;;;
2022/08/11 06:00:03;;;;;;;0.3;0.3;;;;;;;19.9;100.0;101960;;;;
2022/08/11 06:01:00;;;;;;;0.3;0.3;;;;;;;20.0;100.0;101960;;;;
2022/08/11 06:02:01;;;;;;;0.3;0.3;;;;;;;20.0;100.0;101960;;;;
2022/08/11 06:03:02;;;;;;;0.3;0.3;;;;;;;19.9;100.0;101960;;;;
2022/08/11 06:05:00;;;;;;;0.3;0.3;;;;;;;19.9;100.0;101960;;;;
2022/08/11 06:06:07;;;;;;;0.3;0.3;;;;;;;19.9;100.0;101960;;;;
2022/08/11 06:07:05;;;;;;;0.3;0.3;;;;;;;20.1;100.0;101960;;;;
2022/08/11 06:08:01;;;;;;;0.3;0.3;;;;;;;20.1;100.0;101960;;;;
2022/08/11 06:09:00;;;;;;;0.3;0.3;;;;;;;20.1;100.0;101960;;;;
2022/08/11 06:10:01;;;;;;;0.3;0.3;;;;;;;20.1;100.0;101960;;;;
2022/08/11 06:11:02;;;;;;;0.3;0.3;;;;;;;20.1;100.0;101960;;;;
2022/08/11 06:12:03;;;;;;;0.3;0.3;;;;;;;20.1;100.0;101960;;;;
2022/08/11 06:13:00;;;;;;;0.3;0.3;;;;;;;20.2;100.0;101960;;;;
2022/08/11 06:14:01;;;;;;;0.3;0.3;;;;;;;20.2;100.0;101960;;;;
2022/08/11 06:15:01;;;;;;;0.3;0.3;;;;;;;20.3;100.0;101960;;;;
2022/08/11 06:16:06;;;;;;;0.3;0.3;;;;;;;20.3;100.0;101960;;;;
2022/08/11 06:17:01;;;;;;;0.3;0.3;;;;;;;20.3;100.0;101960;;;;
2022/08/11 06:18:01;;;;;;;0.3;0.3;;;;;;;20.3;100.0;101960;;;;
2022/08/11 06:19:00;;;;;;;0.3;0.3;;;;;;;20.3;100.0;101960;;;;
2022/08/11 06:20:11;;;;;;;0.3;0.3;;;;;;;20.3;100.0;101960;;;;
2022/08/11 06:21:00;;;;;;;0.3;0.3;;;;;;;20.4;100.0;101960;;;;
2022/08/11 06:22:01;;;;;;;0.3;0.3;;;;;;;20.4;100.0;101960;;;;
2022/08/11 06:23:02;;;;;;;0.3;0.3;;;;;;;20.5;100.0;101970;;;;
2022/08/11 06:24:02;;;;;;;0.3;0.3;;;;;;;20.5;100.0;101970;;;;
2022/08/11 06:25:01;;;;;;;0.3;0.3;;;;;;;20.6;100.0;101970;;;;
2022/08/11 06:26:00;;;;;;;0.3;0.3;;;;;;;20.6;100.0;101970;;;;
2022/08/11 06:27:11;;;;;;;0.3;0.3;;;;;;;20.6;100.0;101960;;;;
2022/08/11 06:28:02;;;;;;;0.3;0.3;;;;;;;20.6;100.0;101960;;;;
2022/08/11 06:29:02;;;;;;;0.3;0.3;;;;;;;20.8;100.0;101970;;;;
2022/08/11 06:30:01;;;;;;;0.3;0.3;;;;;;;20.8;100.0;101970;;;;
2022/08/11 06:31:01;;;;;;;0.3;0.3;;;;;;;20.7;100.0;101970;;;;
2022/08/11 06:32:01;;;;;;;0.3;0.3;;;;;;;20.7;100.0;101970;;;;
2022/08/11 06:33:03;;;;;;;0.3;0.3;;;;;;;20.8;100.0;101970;;;;
2022/08/11 06:34:07;;;;;;;0.3;0.3;;;;;;;20.8;100.0;101970;;;;
2022/08/11 06:35:03;;;;;;;0.3;0.3;;;;;;;21.0;100.0;101970;;;;
2022/08/11 06:55:05;;;;;;;0.2;0.2;;;;;;;21.7;99.5;101960;;;;
2022/08/11 07:01:02;;;;;;;0.2;0.2;;;;;;;21.8;98.0;101970;;;;
2022/08/11 07:02:00;;;;;;;0.2;0.2;;;;;;;21.8;98.0;101970;;;;
2022/08/11 07:03:00;;;;;;;0.2;0.2;;;;;;;22.0;97.3;101970;;;;
2022/08/11 07:04:05;;;;;;;0.2;0.2;;;;;;;22.1;95.1;101970;;;;
2022/08/11 07:05:02;;;;;;;0.2;0.2;;;;;;;22.1;95.1;101970;;;;
2022/08/11 07:06:10;;;;;;;0.2;0.2;;;;;;;22.2;95.5;101970;;;;
2022/08/11 07:16:11;;;;;;;0.2;0.2;;;;;;;22.3;92.7;101960;;;;
2022/08/11 07:17:00;;;;;;;0.2;0.2;;;;;;;22.3;92.7;101960;;;;
2022/08/11 07:29:01;;;;;;;0.2;0.2;;;;;;;22.9;91.4;101960;;;;
2022/08/11 07:30:01;;;;;;;0.2;0.2;;;;;;;22.9;91.4;101960;;;;
2022/08/11 07:31:02;;;;;;;0.2;0.2;;;;;;;23.0;91.5;101960;;;;
2022/08/11 07:32:07;;;;;;;0.2;0.2;;;;;;;23.0;91.1;101960;;;;
2022/08/11 07:33:01;;;;;;;0.2;0.2;;;;;;;23.0;91.1;101960;;;;
2022/08/11 07:34:13;;;;;;;0.2;0.2;;;;;;;23.1;89.8;101960;;;;
2022/08/11 07:35:12;;;;;;;0.2;0.2;;;;;;;23.1;89.8;101960;;;;
2022/08/11 07:36:02;;;;;;;0.2;0.2;;;;;;;23.3;89.5;101960;;;;
2022/08/11 07:37:03;;;;;;;0.2;0.2;;;;;;;23.3;89.5;101960;;;;
2022/08/11 07:38:04;;;;;;;0.2;0.2;;;;;;;23.3;89.6;101950;;;;
2022/08/11 07:39:01;;;;;;;0.2;0.2;;;;;;;23.3;89.6;101950;;;;
2022/08/11 07:40:01;;;;;;;0.2;0.2;;;;;;;23.3;89.6;101950;;;;
2022/08/11 07:41:00;;;;;;;0.2;0.2;;;;;;;23.5;89.1;101960;;;;
2022/08/11 07:42:05;;;;;;;0.2;0.2;;;;;;;23.4;89.1;101960;;;;
2022/08/11 07:43:00;;;;;;;0.2;0.2;;;;;;;23.4;89.1;101960;;;;
2022/08/11 07:44:07;;;;;;;0.2;0.2;;;;;;;23.4;89.1;101960;;;;
2022/08/11 07:53:01;;;;;;;0.2;0.2;;;;;;;23.9;85.6;101960;;;;
2022/08/11 07:54:10;;;;;;;0.1;0.1;;;;;;;24.0;85.8;101960;;;;
2022/08/11 07:55:05;;;;;;;0.1;0.1;;;;;;;24.0;85.8;101960;;;;
2022/08/11 07:56:04;;;;;;;0.1;0.1;;;;;;;24.1;84.6;101960;;;;
2022/08/11 08:18:11;;;;;;;0.1;0.1;;;;;;;25.2;74.9;101970;;;;
2022/08/11 08:19:00;;;;;;;0.1;0.1;;;;;;;25.2;74.9;101970;;;;
2022/08/11 08:20:01;;;;;;;0.1;0.1;;;;;;;25.2;74.9;101970;;;;
2022/08/11 08:21:10;;;;;;;0.1;0.1;;;;;;;25.3;73.2;101970;;;;
2022/08/11 08:22:10;;;;;;;0.1;0.1;;;;;;;25.3;72.7;101970;;;;
2022/08/11 08:23:01;;;;;;;0.1;0.1;;;;;;;25.3;72.7;101970;;;;
2022/08/11 08:24:01;;;;;;;0.1;0.1;;;;;;;25.3;72.7;101970;;;;
2022/08/11 08:25:00;;;;;;;0.1;0.1;;;;;;;25.3;69.9;101970;;;;
2022/08/11 08:26:03;;;;;;;0.1;0.1;;;;;;;25.3;69.9;101970;;;;
2022/08/11 08:27:00;;;;;;;0.1;0.1;;;;;;;25.5;67.0;101960;;;;
2022/08/11 08:28:01;;;;;;;0.1;0.1;;;;;;;25.5;67.0;101960;;;;
2022/08/11 08:31:00;;;;;;;0.1;0.1;;;;;;;25.7;64.9;101960;;;;
2022/08/11 08:32:01;;;;;;;0.1;0.1;;;;;;;25.7;64.9;101960;;;;
2022/08/11 08:33:00;;;;;;;0.1;0.1;;;;;;;25.6;65.2;101960;;;;
2022/08/11 08:34:00;;;;;;;0.6;0.6;;;;;;;25.6;65.2;101960;;;;
2022/08/11 08:35:02;;;;;;;0.6;0.6;;;;;;;25.7;63.7;101960;;;;
2022/08/11 08:36:10;;;;;;;0.6;0.6;;;;;;;25.7;60.5;101960;;;;
2022/08/11 08:37:00;;;;;;;0.6;0.6;;;;;;;25.7;60.5;101960;;;;
2022/08/11 08:38:00;;;;;;;0.6;0.6;;;;;;;25.7;60.5;101960;;;;
2022/08/11 08:39:00;;;;;;;0.6;0.6;;;;;;;25.7;61.9;101960;;;;
2022/08/11 08:40:00;;;;;;;0.6;0.6;;;;;;;25.7;61.9;101960;;;;
2022/08/11 08:41:00;;;;;;;0.6;0.6;;;;;;;25.8;63.7;101960;;;;
2022/08/11 08:42:03;;;;;;;0.6;0.6;;;;;;;26.0;62.3;101960;;;;
2022/08/11 08:43:03;;;;;;;0.6;0.6;;;;;;;26.0;62.3;101960;;;;
2022/08/11 08:44:17;;;;;;;0.6;0.6;;;;;;;26.0;63.5;101950;;;;
2022/08/11 08:45:04;;;;;;;0.6;0.6;;;;;;;26.0;63.5;101950;;;;
2022/08/11 08:46:01;;;;;;;0.6;0.6;;;;;;;26.0;63.5;101950;;;;
2022/08/11 08:47:00;;;;;;;0.6;0.6;;;;;;;26.3;61.9;101960;;;;
2022/08/11 08:48:03;;;;;;;0.6;0.6;;;;;;;26.2;61.2;101960;;;;
2022/08/11 08:49:01;;;;;;;0.6;0.6;;;;;;;26.2;61.2;101960;;;;
2022/08/11 08:50:02;;;;;;;0.6;0.6;;;;;;;26.3;61.2;101960;;;;
2022/08/11 08:52:12;;;;;;;0.6;0.6;;;;;;;26.4;61.4;101960;;;;
2022/08/11 08:53:04;;;;;;;0.6;0.6;;;;;;;26.4;61.4;101960;;;;
2022/08/11 08:54:03;;;;;;;0.2;0.2;;;;;;;26.4;62.0;101960;;;;
2022/08/11 08:55:01;;;;;;;0.2;0.2;;;;;;;26.4;62.0;101960;;;;
2022/08/11 08:56:00;;;;;;;0.2;0.2;;;;;;;26.4;62.0;101960;;;;
2022/08/11 08:57:04;;;;;;;0.2;0.2;;;;;;;26.6;61.2;101960;;;;
2022/08/11 08:58:01;;;;;;;0.2;0.2;;;;;;;26.6;61.2;101960;;;;
2022/08/11 08:59:01;;;;;;;0.2;0.2;;;;;;;26.6;60.7;101960;;;;
2022/08/11 09:00:01;;;;;;;0.2;0.2;;;;;;;26.6;60.7;101960;;;;
2022/08/11 09:01:00;;;;;;;0.2;0.2;;;;;;;26.5;60.1;101960;;;;
2022/08/11 09:02:01;;;;;;;0.2;0.2;;;;;;;26.5;60.1;101960;;;;
2022/08/11 09:03:10;;;;;;;0.2;0.2;;;;;;;26.7;59.6;101950;;;;
2022/08/11 09:04:11;;;;;;;0.2;0.2;;;;;;;26.9;59.9;101950;;;;
2022/08/11 09:05:01;;;;;;;0.2;0.2;;;;;;;26.9;59.9;101950;;;;
2022/08/11 09:06:00;;;;;;;0.2;0.2;;;;;;;26.9;59.9;101950;;;;
2022/08/11 09:07:05;;;;;;;0.2;0.2;;;;;;;26.8;60.2;101950;;;;